sensor_id;sensor_type;location;lat;lon;timestamp;temperature;humidity
70593;DHT22;58294;42.988;20.338;2024-01-15T00:02:08;0.80;1894.40
70593;DHT22;58294;42.988;20.338;2024-01-15T00:04:40;0.80;1894.40
70593;DHT22;58294;42.988;20.338;2024-01-15T00:07:07;0.80;1868.80
70593;DHT22;58294;42.988;20.338;2024-01-15T00:09:33;0.80;1894.40
70593;DHT22;58294;42.988;20.338;2024-01-15T00:12:00;0.80;1894.40
70593;DHT22;58294;42.988;20.338;2024-01-15T00:14:26;0.80;1894.40
70593;DHT22;58294;42.988;20.338;2024-01-15T00:16:52;0.80;1894.40
70593;DHT22;58294;42.988;20.338;2024-01-15T00:19:20;0.90;1894.40
70593;DHT22;58294;42.988;20.338;2024-01-15T00:21:47;0.90;1894.40
70593;DHT22;58294;42.988;20.338;2024-01-15T00:24:13;0.90;1868.80
70593;DHT22;58294;42.988;20.338;2024-01-15T00:26:39;0.90;1868.80
70593;DHT22;58294;42.988;20.338;2024-01-15T00:29:07;0.90;1894.40
70593;DHT22;58294;42.988;20.338;2024-01-15T00:31:33;0.90;1843.20
70593;DHT22;58294;42.988;20.338;2024-01-15T00:33:59;0.90;1843.20
70593;DHT22;58294;42.988;20.338;2024-01-15T00:36:24;0.90;1843.20
70593;DHT22;58294;42.988;20.338;2024-01-15T00:38:50;0.90;1868.80
70593;DHT22;58294;42.988;20.338;2024-01-15T00:41:17;0.90;1868.80
70593;DHT22;58294;42.988;20.338;2024-01-15T00:43:44;0.90;1868.80
70593;DHT22;58294;42.988;20.338;2024-01-15T00:46:10;0.80;1868.80
70593;DHT22;58294;42.988;20.338;2024-01-15T00:48:36;0.80;1894.40
70593;DHT22;58294;42.988;20.338;2024-01-15T00:51:05;0.80;1868.80
70593;DHT22;58294;42.988;20.338;2024-01-15T00:53:31;0.90;1894.40
70593;DHT22;58294;42.988;20.338;2024-01-15T00:55:57;0.90;1894.40
70593;DHT22;58294;42.988;20.338;2024-01-15T00:58:23;0.90;1894.40
70593;DHT22;58294;42.988;20.338;2024-01-15T01:00:49;0.90;1894.40
70593;DHT22;58294;42.988;20.338;2024-01-15T01:03:14;0.90;1868.80
70593;DHT22;58294;42.988;20.338;2024-01-15T01:05:40;0.90;1894.40
70593;DHT22;58294;42.988;20.338;2024-01-15T01:08:06;0.90;1868.80
70593;DHT22;58294;42.988;20.338;2024-01-15T01:10:32;0.90;1868.80
70593;DHT22;58294;42.988;20.338;2024-01-15T01:12:57;0.80;1843.20
70593;DHT22;58294;42.988;20.338;2024-01-15T01:15:23;0.80;1868.80
70593;DHT22;58294;42.988;20.338;2024-01-15T01:17:50;0.80;1868.80
70593;DHT22;58294;42.988;20.338;2024-01-15T01:20:16;0.90;1894.40
70593;DHT22;58294;42.988;20.338;2024-01-15T01:22:42;0.90;1894.40
70593;DHT22;58294;42.988;20.338;2024-01-15T01:25:08;0.90;1894.40
70593;DHT22;58294;42.988;20.338;2024-01-15T01:27:35;0.90;1894.40
70593;DHT22;58294;42.988;20.338;2024-01-15T01:30:01;25.60;1868.80
70593;DHT22;58294;42.988;20.338;2024-01-15T01:32:27;25.60;1894.40
70593;DHT22;58294;42.988;20.338;2024-01-15T01:34:53;25.60;1868.80
70593;DHT22;58294;42.988;20.338;2024-01-15T01:37:19;25.60;1894.40
70593;DHT22;58294;42.988;20.338;2024-01-15T01:39:44;25.60;1894.40
70593;DHT22;58294;42.988;20.338;2024-01-15T01:42:11;25.60;1894.40
70593;DHT22;58294;42.988;20.338;2024-01-15T01:44:37;25.70;1894.40
70593;DHT22;58294;42.988;20.338;2024-01-15T01:47:04;25.80;1868.80
70593;DHT22;58294;42.988;20.338;2024-01-15T01:49:31;25.80;1843.20
70593;DHT22;58294;42.988;20.338;2024-01-15T01:51:59;25.70;1868.80
70593;DHT22;58294;42.988;20.338;2024-01-15T01:54:27;25.80;1868.80
70593;DHT22;58294;42.988;20.338;2024-01-15T01:56:54;25.80;1843.20
70593;DHT22;58294;42.988;20.338;2024-01-15T01:59:22;25.80;1868.80
70593;DHT22;58294;42.988;20.338;2024-01-15T02:01:50;25.70;1843.20
70593;DHT22;58294;42.988;20.338;2024-01-15T02:04:16;25.70;1868.80
70593;DHT22;58294;42.988;20.338;2024-01-15T02:06:42;25.70;1868.80
70593;DHT22;58294;42.988;20.338;2024-01-15T02:09:08;25.70;1868.80
70593;DHT22;58294;42.988;20.338;2024-01-15T02:11:35;25.70;1894.40
70593;DHT22;58294;42.988;20.338;2024-01-15T02:14:02;25.80;1894.40
70593;DHT22;58294;42.988;20.338;2024-01-15T02:16:28;25.80;1868.80
70593;DHT22;58294;42.988;20.338;2024-01-15T02:18:54;25.80;1894.40
70593;DHT22;58294;42.988;20.338;2024-01-15T02:21:19;25.80;1868.80
70593;DHT22;58294;42.988;20.338;2024-01-15T02:23:45;25.80;1868.80
70593;DHT22;58294;42.988;20.338;2024-01-15T02:26:11;25.80;1868.80
70593;DHT22;58294;42.988;20.338;2024-01-15T02:28:37;25.80;1843.20
70593;DHT22;58294;42.988;20.338;2024-01-15T02:31:03;25.80;1868.80
70593;DHT22;58294;42.988;20.338;2024-01-15T02:33:29;25.80;1843.20
70593;DHT22;58294;42.988;20.338;2024-01-15T02:35:55;25.70;1868.80
70593;DHT22;58294;42.988;20.338;2024-01-15T02:38:21;25.70;1894.40
70593;DHT22;58294;42.988;20.338;2024-01-15T02:40:47;25.70;1868.80
70593;DHT22;58294;42.988;20.338;2024-01-15T02:43:12;25.70;1894.40
70593;DHT22;58294;42.988;20.338;2024-01-15T02:45:39;25.70;1894.40
70593;DHT22;58294;42.988;20.338;2024-01-15T02:48:05;25.60;1894.40
70593;DHT22;58294;42.988;20.338;2024-01-15T02:50:31;25.60;1894.40
70593;DHT22;58294;42.988;20.338;2024-01-15T02:52:57;25.60;1894.40
70593;DHT22;58294;42.988;20.338;2024-01-15T02:55:23;25.60;1894.40
70593;DHT22;58294;42.988;20.338;2024-01-15T02:57:48;25.60;1920.00
70593;DHT22;58294;42.988;20.338;2024-01-15T03:00:14;25.60;1920.00
70593;DHT22;58294;42.988;20.338;2024-01-15T03:02:40;25.60;1920.00
70593;DHT22;58294;42.988;20.338;2024-01-15T03:05:11;25.70;1920.00
70593;DHT22;58294;42.988;20.338;2024-01-15T03:07:37;25.60;1894.40
70593;DHT22;58294;42.988;20.338;2024-01-15T03:10:05;25.70;1920.00
70593;DHT22;58294;42.988;20.338;2024-01-15T03:12:31;25.70;1894.40
70593;DHT22;58294;42.988;20.338;2024-01-15T03:14:57;25.70;1920.00
70593;DHT22;58294;42.988;20.338;2024-01-15T03:17:23;25.80;1920.00
70593;DHT22;58294;42.988;20.338;2024-01-15T03:19:49;25.80;1920.00
70593;DHT22;58294;42.988;20.338;2024-01-15T03:22:16;25.80;1920.00
70593;DHT22;58294;42.988;20.338;2024-01-15T03:24:41;25.70;1894.40
70593;DHT22;58294;42.988;20.338;2024-01-15T03:27:07;25.70;1894.40
70593;DHT22;58294;42.988;20.338;2024-01-15T03:29:33;25.70;1868.80
70593;DHT22;58294;42.988;20.338;2024-01-15T03:31:59;25.70;1894.40
70593;DHT22;58294;42.988;20.338;2024-01-15T03:34:25;25.70;1894.40
70593;DHT22;58294;42.988;20.338;2024-01-15T03:36:51;25.70;1920.00
70593;DHT22;58294;42.988;20.338;2024-01-15T03:39:16;25.70;1894.40
70593;DHT22;58294;42.988;20.338;2024-01-15T03:41:42;25.70;1920.00
70593;DHT22;58294;42.988;20.338;2024-01-15T03:44:08;25.70;1920.00
70593;DHT22;58294;42.988;20.338;2024-01-15T03:46:34;25.80;1894.40
70593;DHT22;58294;42.988;20.338;2024-01-15T03:48:59;25.80;1920.00
70593;DHT22;58294;42.988;20.338;2024-01-15T03:51:25;25.90;1920.00
70593;DHT22;58294;42.988;20.338;2024-01-15T03:53:51;25.90;1920.00
70593;DHT22;58294;42.988;20.338;2024-01-15T03:56:17;26.00;1894.40
70593;DHT22;58294;42.988;20.338;2024-01-15T03:58:43;26.00;1894.40
70593;DHT22;58294;42.988;20.338;2024-01-15T04:01:12;26.10;1920.00
70593;DHT22;58294;42.988;20.338;2024-01-15T04:03:38;26.10;1920.00
70593;DHT22;58294;42.988;20.338;2024-01-15T04:06:04;26.20;1894.40
70593;DHT22;58294;42.988;20.338;2024-01-15T04:08:30;26.10;1868.80
70593;DHT22;58294;42.988;20.338;2024-01-15T04:10:56;26.10;1894.40
70593;DHT22;58294;42.988;20.338;2024-01-15T04:13:22;26.10;1894.40
70593;DHT22;58294;42.988;20.338;2024-01-15T04:15:48;26.10;1894.40
70593;DHT22;58294;42.988;20.338;2024-01-15T04:18:16;26.10;1868.80
70593;DHT22;58294;42.988;20.338;2024-01-15T04:20:42;26.10;1920.00
70593;DHT22;58294;42.988;20.338;2024-01-15T04:23:07;26.20;1920.00
70593;DHT22;58294;42.988;20.338;2024-01-15T04:25:33;26.30;1920.00
70593;DHT22;58294;42.988;20.338;2024-01-15T04:27:59;26.30;1920.00
70593;DHT22;58294;42.988;20.338;2024-01-15T04:30:25;26.40;1920.00
70593;DHT22;58294;42.988;20.338;2024-01-15T04:32:50;26.40;1920.00
70593;DHT22;58294;42.988;20.338;2024-01-15T04:35:16;26.50;1920.00
70593;DHT22;58294;42.988;20.338;2024-01-15T04:37:42;51.20;1945.60
70593;DHT22;58294;42.988;20.338;2024-01-15T04:40:09;51.20;1920.00
70593;DHT22;58294;42.988;20.338;2024-01-15T04:42:35;51.20;1920.00
70593;DHT22;58294;42.988;20.338;2024-01-15T04:45:00;26.50;1868.80
70593;DHT22;58294;42.988;20.338;2024-01-15T04:47:26;26.50;1868.80
70593;DHT22;58294;42.988;20.338;2024-01-15T04:49:52;26.50;1868.80
70593;DHT22;58294;42.988;20.338;2024-01-15T04:52:18;26.50;1894.40
70593;DHT22;58294;42.988;20.338;2024-01-15T04:54:44;26.50;1894.40
70593;DHT22;58294;42.988;20.338;2024-01-15T04:57:10;26.50;1894.40
70593;DHT22;58294;42.988;20.338;2024-01-15T04:59:35;26.50;1894.40
70593;DHT22;58294;42.988;20.338;2024-01-15T05:02:01;51.20;1920.00
70593;DHT22;58294;42.988;20.338;2024-01-15T05:04:27;26.50;1868.80
70593;DHT22;58294;42.988;20.338;2024-01-15T05:06:53;26.50;1868.80
70593;DHT22;58294;42.988;20.338;2024-01-15T05:09:19;26.50;1868.80
70593;DHT22;58294;42.988;20.338;2024-01-15T05:11:45;26.40;1868.80
70593;DHT22;58294;42.988;20.338;2024-01-15T05:14:11;26.40;1894.40
70593;DHT22;58294;42.988;20.338;2024-01-15T05:16:46;26.40;1894.40
70593;DHT22;58294;42.988;20.338;2024-01-15T05:19:12;26.50;1920.00
70593;DHT22;58294;42.988;20.338;2024-01-15T05:21:38;51.20;1945.60
70593;DHT22;58294;42.988;20.338;2024-01-15T05:24:03;51.20;1945.60
70593;DHT22;58294;42.988;20.338;2024-01-15T05:26:29;51.20;1945.60
70593;DHT22;58294;42.988;20.338;2024-01-15T05:28:55;51.20;1945.60
70593;DHT22;58294;42.988;20.338;2024-01-15T05:31:21;51.30;1945.60
70593;DHT22;58294;42.988;20.338;2024-01-15T05:33:47;51.40;1920.00
70593;DHT22;58294;42.988;20.338;2024-01-15T05:36:12;51.40;1894.40
70593;DHT22;58294;42.988;20.338;2024-01-15T05:38:38;51.40;1894.40
70593;DHT22;58294;42.988;20.338;2024-01-15T05:41:05;51.40;1894.40
70593;DHT22;58294;42.988;20.338;2024-01-15T05:43:31;51.40;1920.00
70593;DHT22;58294;42.988;20.338;2024-01-15T05:45:57;51.50;1894.40
70593;DHT22;58294;42.988;20.338;2024-01-15T05:48:22;51.40;1868.80
70593;DHT22;58294;42.988;20.338;2024-01-15T05:50:48;51.40;1868.80
70593;DHT22;58294;42.988;20.338;2024-01-15T05:53:14;51.40;1868.80
70593;DHT22;58294;42.988;20.338;2024-01-15T05:55:40;51.40;1868.80
70593;DHT22;58294;42.988;20.338;2024-01-15T05:58:06;51.40;1868.80
70593;DHT22;58294;42.988;20.338;2024-01-15T06:00:32;51.40;1894.40
70593;DHT22;58294;42.988;20.338;2024-01-15T06:02:59;51.40;1894.40
70593;DHT22;58294;42.988;20.338;2024-01-15T06:05:25;51.40;1894.40
70593;DHT22;58294;42.988;20.338;2024-01-15T06:07:51;51.40;1894.40
70593;DHT22;58294;42.988;20.338;2024-01-15T06:10:17;51.50;1920.00
70593;DHT22;58294;42.988;20.338;2024-01-15T06:12:43;51.50;1894.40
70593;DHT22;58294;42.988;20.338;2024-01-15T06:15:10;51.50;1894.40
70593;DHT22;58294;42.988;20.338;2024-01-15T06:17:36;51.50;1868.80
70593;DHT22;58294;42.988;20.338;2024-01-15T06:20:02;51.50;1868.80
70593;DHT22;58294;42.988;20.338;2024-01-15T06:22:28;51.50;1894.40
70593;DHT22;58294;42.988;20.338;2024-01-15T06:24:54;51.50;1894.40
70593;DHT22;58294;42.988;20.338;2024-01-15T06:27:21;51.50;1920.00
70593;DHT22;58294;42.988;20.338;2024-01-15T06:29:47;51.60;1894.40
70593;DHT22;58294;42.988;20.338;2024-01-15T06:32:13;51.70;1920.00
70593;DHT22;58294;42.988;20.338;2024-01-15T06:34:39;51.70;1920.00
70593;DHT22;58294;42.988;20.338;2024-01-15T06:37:05;51.80;1920.00
70593;DHT22;58294;42.988;20.338;2024-01-15T06:39:31;51.80;1920.00
70593;DHT22;58294;42.988;20.338;2024-01-15T06:41:57;51.90;1920.00
70593;DHT22;58294;42.988;20.338;2024-01-15T06:44:23;52.00;1894.40
70593;DHT22;58294;42.988;20.338;2024-01-15T06:46:48;52.00;1868.80
70593;DHT22;58294;42.988;20.338;2024-01-15T06:49:15;52.00;1920.00
70593;DHT22;58294;42.988;20.338;2024-01-15T06:51:41;52.10;1894.40
70593;DHT22;58294;42.988;20.338;2024-01-15T06:54:07;52.10;1920.00
70593;DHT22;58294;42.988;20.338;2024-01-15T06:56:33;76.80;1920.00
70593;DHT22;58294;42.988;20.338;2024-01-15T06:58:59;76.90;1894.40
70593;DHT22;58294;42.988;20.338;2024-01-15T07:01:24;76.90;1894.40
70593;DHT22;58294;42.988;20.338;2024-01-15T07:03:50;76.90;1894.40
70593;DHT22;58294;42.988;20.338;2024-01-15T07:06:16;77.00;1894.40
70593;DHT22;58294;42.988;20.338;2024-01-15T07:08:42;77.00;1894.40
70593;DHT22;58294;42.988;20.338;2024-01-15T07:11:08;77.10;1894.40
70593;DHT22;58294;42.988;20.338;2024-01-15T07:13:36;77.20;1894.40
70593;DHT22;58294;42.988;20.338;2024-01-15T07:16:02;77.20;1894.40
70593;DHT22;58294;42.988;20.338;2024-01-15T07:18:28;77.30;1894.40
70593;DHT22;58294;42.988;20.338;2024-01-15T07:20:54;77.40;1868.80
70593;DHT22;58294;42.988;20.338;2024-01-15T07:23:19;77.50;1868.80
70593;DHT22;58294;42.988;20.338;2024-01-15T07:25:45;77.50;1868.80
70593;DHT22;58294;42.988;20.338;2024-01-15T07:28:11;77.50;1868.80
70593;DHT22;58294;42.988;20.338;2024-01-15T07:30:37;77.60;1843.20
70593;DHT22;58294;42.988;20.338;2024-01-15T07:33:04;77.60;1843.20
70593;DHT22;58294;42.988;20.338;2024-01-15T07:35:30;77.60;1843.20
70593;DHT22;58294;42.988;20.338;2024-01-15T07:37:56;77.60;1843.20
70593;DHT22;58294;42.988;20.338;2024-01-15T07:40:22;77.70;1843.20
70593;DHT22;58294;42.988;20.338;2024-01-15T07:42:48;77.70;1792.00
70593;DHT22;58294;42.988;20.338;2024-01-15T07:45:14;77.60;1792.00
70593;DHT22;58294;42.988;20.338;2024-01-15T07:47:39;77.70;1792.00
70593;DHT22;58294;42.988;20.338;2024-01-15T07:50:05;77.60;1817.60
70593;DHT22;58294;42.988;20.338;2024-01-15T07:52:31;77.70;1843.20
70593;DHT22;58294;42.988;20.338;2024-01-15T07:54:57;77.70;1843.20
70593;DHT22;58294;42.988;20.338;2024-01-15T07:57:25;102.40;1817.60
70593;DHT22;58294;42.988;20.338;2024-01-15T07:59:51;102.40;1843.20
70593;DHT22;58294;42.988;20.338;2024-01-15T08:02:17;102.50;1843.20
70593;DHT22;58294;42.988;20.338;2024-01-15T08:04:43;102.60;1868.80
70593;DHT22;58294;42.988;20.338;2024-01-15T08:07:10;102.70;1868.80
70593;DHT22;58294;42.988;20.338;2024-01-15T08:09:35;102.70;1843.20
70593;DHT22;58294;42.988;20.338;2024-01-15T08:12:01;102.80;1843.20
70593;DHT22;58294;42.988;20.338;2024-01-15T08:14:27;102.80;1843.20
70593;DHT22;58294;42.988;20.338;2024-01-15T08:16:53;102.90;1868.80
70593;DHT22;58294;42.988;20.338;2024-01-15T08:19:19;103.00;1817.60
70593;DHT22;58294;42.988;20.338;2024-01-15T08:21:46;103.10;1843.20
70593;DHT22;58294;42.988;20.338;2024-01-15T08:24:12;103.20;1817.60
70593;DHT22;58294;42.988;20.338;2024-01-15T08:26:38;103.20;1817.60
70593;DHT22;58294;42.988;20.338;2024-01-15T08:29:04;103.30;1817.60
70593;DHT22;58294;42.988;20.338;2024-01-15T08:31:30;128.00;1817.60
70593;DHT22;58294;42.988;20.338;2024-01-15T08:33:55;128.00;1792.00
70593;DHT22;58294;42.988;20.338;2024-01-15T08:36:22;103.30;1792.00
70593;DHT22;58294;42.988;20.338;2024-01-15T08:38:48;128.00;1817.60
70593;DHT22;58294;42.988;20.338;2024-01-15T08:41:14;128.10;1843.20
70593;DHT22;58294;42.988;20.338;2024-01-15T08:43:40;128.20;1817.60
70593;DHT22;58294;42.988;20.338;2024-01-15T08:46:05;128.30;1817.60
70593;DHT22;58294;42.988;20.338;2024-01-15T08:48:32;128.30;1792.00
70593;DHT22;58294;42.988;20.338;2024-01-15T08:50:58;128.30;1817.60
70593;DHT22;58294;42.988;20.338;2024-01-15T08:53:24;128.40;1792.00
70593;DHT22;58294;42.988;20.338;2024-01-15T08:55:49;128.50;1792.00
70593;DHT22;58294;42.988;20.338;2024-01-15T08:58:15;128.60;1843.20
70593;DHT22;58294;42.988;20.338;2024-01-15T09:00:41;128.80;1817.60
70593;DHT22;58294;42.988;20.338;2024-01-15T09:03:07;128.80;1792.00
70593;DHT22;58294;42.988;20.338;2024-01-15T09:05:36;128.90;1766.40
70593;DHT22;58294;42.988;20.338;2024-01-15T09:08:02;128.90;1792.00
70593;DHT22;58294;42.988;20.338;2024-01-15T09:10:29;153.60;1792.00
70593;DHT22;58294;42.988;20.338;2024-01-15T09:12:54;153.80;1817.60
70593;DHT22;58294;42.988;20.338;2024-01-15T09:15:21;153.90;1766.40
70593;DHT22;58294;42.988;20.338;2024-01-15T09:17:47;153.90;1766.40
70593;DHT22;58294;42.988;20.338;2024-01-15T09:20:12;154.00;1766.40
70593;DHT22;58294;42.988;20.338;2024-01-15T09:22:38;154.10;1740.80
70593;DHT22;58294;42.988;20.338;2024-01-15T09:25:08;154.20;1740.80
70593;DHT22;58294;42.988;20.338;2024-01-15T09:27:37;154.20;1715.20
70593;DHT22;58294;42.988;20.338;2024-01-15T09:30:04;154.20;1740.80
70593;DHT22;58294;42.988;20.338;2024-01-15T09:32:30;154.30;1740.80
70593;DHT22;58294;42.988;20.338;2024-01-15T09:34:56;154.40;1715.20
70593;DHT22;58294;42.988;20.338;2024-01-15T09:37:22;154.50;1740.80
70593;DHT22;58294;42.988;20.338;2024-01-15T09:39:49;179.20;1715.20
70593;DHT22;58294;42.988;20.338;2024-01-15T09:42:16;179.20;1715.20
70593;DHT22;58294;42.988;20.338;2024-01-15T09:44:42;179.40;1766.40
70593;DHT22;58294;42.988;20.338;2024-01-15T09:47:08;179.50;1740.80
70593;DHT22;58294;42.988;20.338;2024-01-15T09:49:34;179.60;1689.60
70593;DHT22;58294;42.988;20.338;2024-01-15T09:52:01;179.60;1689.60
70593;DHT22;58294;42.988;20.338;2024-01-15T09:54:27;179.70;1664.00
70593;DHT22;58294;42.988;20.338;2024-01-15T09:56:54;179.70;1664.00
70593;DHT22;58294;42.988;20.338;2024-01-15T09:59:22;179.80;1689.60
70593;DHT22;58294;42.988;20.338;2024-01-15T10:01:50;179.90;1664.00
70593;DHT22;58294;42.988;20.338;2024-01-15T10:04:16;180.00;1664.00
70593;DHT22;58294;42.988;20.338;2024-01-15T10:06:45;180.10;1664.00
70593;DHT22;58294;42.988;20.338;2024-01-15T10:09:15;204.80;1689.60
70593;DHT22;58294;42.988;20.338;2024-01-15T10:11:42;205.10;1715.20
70593;DHT22;58294;42.988;20.338;2024-01-15T10:14:09;205.30;1715.20
70593;DHT22;58294;42.988;20.338;2024-01-15T10:16:38;205.40;1638.40
70593;DHT22;58294;42.988;20.338;2024-01-15T10:19:04;205.40;1587.20
70593;DHT22;58294;42.988;20.338;2024-01-15T10:21:34;205.40;1587.20
70593;DHT22;58294;42.988;20.338;2024-01-15T10:24:01;205.40;1561.60
70593;DHT22;58294;42.988;20.338;2024-01-15T10:26:28;205.40;1561.60
70593;DHT22;58294;42.988;20.338;2024-01-15T10:28:54;205.40;1587.20
70593;DHT22;58294;42.988;20.338;2024-01-15T10:31:20;205.50;1587.20
70593;DHT22;58294;42.988;20.338;2024-01-15T10:33:48;205.50;1587.20
70593;DHT22;58294;42.988;20.338;2024-01-15T10:36:16;205.50;1536.00
70593;DHT22;58294;42.988;20.338;2024-01-15T10:38:43;205.40;1587.20
70593;DHT22;58294;42.988;20.338;2024-01-15T10:41:09;205.50;1561.60
70593;DHT22;58294;42.988;20.338;2024-01-15T10:43:35;205.50;1536.00
70593;DHT22;58294;42.988;20.338;2024-01-15T10:46:01;205.50;1536.00
70593;DHT22;58294;42.988;20.338;2024-01-15T10:48:28;205.50;1561.60
70593;DHT22;58294;42.988;20.338;2024-01-15T10:50:59;205.60;1561.60
70593;DHT22;58294;42.988;20.338;2024-01-15T10:53:25;205.60;1561.60
70593;DHT22;58294;42.988;20.338;2024-01-15T10:55:51;205.60;1536.00
70593;DHT22;58294;42.988;20.338;2024-01-15T10:58:18;205.60;1561.60
70593;DHT22;58294;42.988;20.338;2024-01-15T11:00:46;205.60;1536.00
70593;DHT22;58294;42.988;20.338;2024-01-15T11:03:12;205.60;1561.60
70593;DHT22;58294;42.988;20.338;2024-01-15T11:05:43;205.60;1536.00
70593;DHT22;58294;42.988;20.338;2024-01-15T11:08:09;205.60;1536.00
70593;DHT22;58294;42.988;20.338;2024-01-15T11:15:59;205.70;1536.00
70593;DHT22;58294;42.988;20.338;2024-01-15T11:18:31;205.70;1536.00
70593;DHT22;58294;42.988;20.338;2024-01-15T11:23:49;205.70;1561.60
70593;DHT22;58294;42.988;20.338;2024-01-15T11:26:35;205.70;1536.00
70593;DHT22;58294;42.988;20.338;2024-01-15T11:29:05;205.70;1536.00
70593;DHT22;58294;42.988;20.338;2024-01-15T11:34:11;205.70;1510.40
70593;DHT22;58294;42.988;20.338;2024-01-15T11:41:58;205.70;1536.00
70593;DHT22;58294;42.988;20.338;2024-01-15T11:44:24;205.60;1536.00
70593;DHT22;58294;42.988;20.338;2024-01-15T11:47:01;205.70;1536.00
70593;DHT22;58294;42.988;20.338;2024-01-15T11:52:19;205.60;1510.40
70593;DHT22;58294;42.988;20.338;2024-01-15T11:57:25;205.50;1536.00
70593;DHT22;58294;42.988;20.338;2024-01-15T11:59:53;205.50;1536.00
70593;DHT22;58294;42.988;20.338;2024-01-15T12:02:19;205.50;1536.00
70593;DHT22;58294;42.988;20.338;2024-01-15T12:04:44;205.40;1536.00
70593;DHT22;58294;42.988;20.338;2024-01-15T12:07:10;205.50;1536.00
70593;DHT22;58294;42.988;20.338;2024-01-15T12:09:43;205.40;1510.40
70593;DHT22;58294;42.988;20.338;2024-01-15T12:12:18;205.40;1561.60
70593;DHT22;58294;42.988;20.338;2024-01-15T12:14:45;205.50;1587.20
70593;DHT22;58294;42.988;20.338;2024-01-15T12:17:11;205.50;1561.60
70593;DHT22;58294;42.988;20.338;2024-01-15T12:19:37;205.50;1561.60
70593;DHT22;58294;42.988;20.338;2024-01-15T12:22:03;205.60;1587.20
70593;DHT22;58294;42.988;20.338;2024-01-15T12:24:29;205.70;1561.60
70593;DHT22;58294;42.988;20.338;2024-01-15T12:26:55;205.60;1587.20
70593;DHT22;58294;42.988;20.338;2024-01-15T12:29:21;205.70;1587.20
70593;DHT22;58294;42.988;20.338;2024-01-15T12:31:48;230.40;1587.20
70593;DHT22;58294;42.988;20.338;2024-01-15T12:34:14;230.40;1561.60
70593;DHT22;58294;42.988;20.338;2024-01-15T12:36:40;230.50;1561.60
70593;DHT22;58294;42.988;20.338;2024-01-15T12:39:11;230.50;1561.60
70593;DHT22;58294;42.988;20.338;2024-01-15T12:41:38;230.60;1561.60
70593;DHT22;58294;42.988;20.338;2024-01-15T12:44:04;230.60;1561.60
70593;DHT22;58294;42.988;20.338;2024-01-15T12:46:31;230.50;1536.00
70593;DHT22;58294;42.988;20.338;2024-01-15T12:48:57;230.50;1536.00
70593;DHT22;58294;42.988;20.338;2024-01-15T12:51:26;230.50;1536.00
70593;DHT22;58294;42.988;20.338;2024-01-15T12:53:53;230.50;1536.00
70593;DHT22;58294;42.988;20.338;2024-01-15T12:56:18;230.60;1561.60
70593;DHT22;58294;42.988;20.338;2024-01-15T12:58:44;230.60;1561.60
70593;DHT22;58294;42.988;20.338;2024-01-15T13:01:10;230.60;1561.60
70593;DHT22;58294;42.988;20.338;2024-01-15T13:03:36;230.70;1561.60
70593;DHT22;58294;42.988;20.338;2024-01-15T13:06:02;230.70;1561.60
70593;DHT22;58294;42.988;20.338;2024-01-15T13:08:28;230.80;1536.00
70593;DHT22;58294;42.988;20.338;2024-01-15T13:10:55;230.80;1536.00
70593;DHT22;58294;42.988;20.338;2024-01-15T13:13:23;230.80;1536.00
70593;DHT22;58294;42.988;20.338;2024-01-15T13:15:48;230.80;1536.00
70593;DHT22;58294;42.988;20.338;2024-01-15T13:18:14;230.80;1536.00
70593;DHT22;58294;42.988;20.338;2024-01-15T13:20:41;230.80;1536.00
70593;DHT22;58294;42.988;20.338;2024-01-15T13:23:07;230.80;1536.00
70593;DHT22;58294;42.988;20.338;2024-01-15T13:25:32;230.80;1510.40
70593;DHT22;58294;42.988;20.338;2024-01-15T13:28:01;230.70;1510.40
70593;DHT22;58294;42.988;20.338;2024-01-15T13:30:28;230.70;1536.00
70593;DHT22;58294;42.988;20.338;2024-01-15T13:32:53;230.70;1536.00
70593;DHT22;58294;42.988;20.338;2024-01-15T13:35:21;230.70;1536.00
70593;DHT22;58294;42.988;20.338;2024-01-15T13:37:47;230.70;1510.40
70593;DHT22;58294;42.988;20.338;2024-01-15T13:40:13;230.60;1536.00
70593;DHT22;58294;42.988;20.338;2024-01-15T13:42:45;230.60;1536.00
70593;DHT22;58294;42.988;20.338;2024-01-15T13:45:12;230.60;1536.00
70593;DHT22;58294;42.988;20.338;2024-01-15T13:47:40;230.60;1536.00
70593;DHT22;58294;42.988;20.338;2024-01-15T13:50:08;230.50;1536.00
70593;DHT22;58294;42.988;20.338;2024-01-15T13:52:34;230.40;1536.00
70593;DHT22;58294;42.988;20.338;2024-01-15T13:55:00;230.40;1536.00
70593;DHT22;58294;42.988;20.338;2024-01-15T13:57:25;205.70;1536.00
70593;DHT22;58294;42.988;20.338;2024-01-15T13:59:51;205.60;1536.00
70593;DHT22;58294;42.988;20.338;2024-01-15T14:02:17;205.50;1536.00
70593;DHT22;58294;42.988;20.338;2024-01-15T14:04:43;205.50;1561.60
70593;DHT22;58294;42.988;20.338;2024-01-15T14:07:09;205.40;1561.60
70593;DHT22;58294;42.988;20.338;2024-01-15T14:09:34;205.40;1561.60
70593;DHT22;58294;42.988;20.338;2024-01-15T14:12:00;205.40;1561.60
70593;DHT22;58294;42.988;20.338;2024-01-15T14:14:26;205.30;1561.60
70593;DHT22;58294;42.988;20.338;2024-01-15T14:16:52;205.30;1561.60
70593;DHT22;58294;42.988;20.338;2024-01-15T14:19:18;205.20;1536.00
70593;DHT22;58294;42.988;20.338;2024-01-15T14:21:44;205.10;1561.60
70593;DHT22;58294;42.988;20.338;2024-01-15T14:24:10;205.10;1587.20
70593;DHT22;58294;42.988;20.338;2024-01-15T14:26:35;205.20;1587.20
70593;DHT22;58294;42.988;20.338;2024-01-15T14:29:01;205.10;1587.20
70593;DHT22;58294;42.988;20.338;2024-01-15T14:31:27;205.10;1587.20
70593;DHT22;58294;42.988;20.338;2024-01-15T14:33:54;205.10;1612.80
70593;DHT22;58294;42.988;20.338;2024-01-15T14:36:20;205.10;1587.20
70593;DHT22;58294;42.988;20.338;2024-01-15T14:38:46;205.10;1587.20
70593;DHT22;58294;42.988;20.338;2024-01-15T14:41:14;205.10;1587.20
70593;DHT22;58294;42.988;20.338;2024-01-15T14:43:42;205.00;1587.20
70593;DHT22;58294;42.988;20.338;2024-01-15T14:46:08;205.00;1612.80
70593;DHT22;58294;42.988;20.338;2024-01-15T14:48:34;205.10;1612.80
70593;DHT22;58294;42.988;20.338;2024-01-15T14:50:59;205.10;1612.80
70593;DHT22;58294;42.988;20.338;2024-01-15T14:53:25;205.10;1612.80
70593;DHT22;58294;42.988;20.338;2024-01-15T14:55:51;205.00;1612.80
70593;DHT22;58294;42.988;20.338;2024-01-15T14:58:19;205.00;1612.80
70593;DHT22;58294;42.988;20.338;2024-01-15T15:00:45;205.00;1612.80